sensor_id;sensor_type;location;lat;lon;timestamp;temperature;humidity
11491;DHT22;5802;52.832;4.758;2022-07-10T00:00:06;24.30;47.00
11491;DHT22;5802;52.832;4.758;2022-07-10T00:02:33;24.30;47.00
11491;DHT22;5802;52.832;4.758;2022-07-10T00:05:00;24.30;47.00
11491;DHT22;5802;52.832;4.758;2022-07-10T00:07:27;24.30;47.00
11491;DHT22;5802;52.832;4.758;2022-07-10T00:09:53;24.30;47.00
11491;DHT22;5802;52.832;4.758;2022-07-10T00:12:21;24.30;46.90
11491;DHT22;5802;52.832;4.758;2022-07-10T00:14:48;24.30;46.90
11491;DHT22;5802;52.832;4.758;2022-07-10T00:17:15;24.30;46.90
11491;DHT22;5802;52.832;4.758;2022-07-10T00:19:42;24.30;46.90
11491;DHT22;5802;52.832;4.758;2022-07-10T00:22:09;24.40;46.70
11491;DHT22;5802;52.832;4.758;2022-07-10T00:24:36;24.40;46.60
11491;DHT22;5802;52.832;4.758;2022-07-10T00:27:03;24.40;46.60
11491;DHT22;5802;52.832;4.758;2022-07-10T00:29:31;24.40;46.60
11491;DHT22;5802;52.832;4.758;2022-07-10T00:31:58;24.40;46.60
11491;DHT22;5802;52.832;4.758;2022-07-10T00:34:25;24.30;46.50
11491;DHT22;5802;52.832;4.758;2022-07-10T00:36:51;24.30;46.50
11491;DHT22;5802;52.832;4.758;2022-07-10T00:39:18;24.30;46.50
11491;DHT22;5802;52.832;4.758;2022-07-10T00:41:44;24.30;46.60
11491;DHT22;5802;52.832;4.758;2022-07-10T00:44:11;24.30;46.60
11491;DHT22;5802;52.832;4.758;2022-07-10T00:46:39;24.20;46.60
11491;DHT22;5802;52.832;4.758;2022-07-10T00:49:06;24.20;46.60
11491;DHT22;5802;52.832;4.758;2022-07-10T00:51:33;24.20;46.70
11491;DHT22;5802;52.832;4.758;2022-07-10T00:54:00;24.20;46.70
11491;DHT22;5802;52.832;4.758;2022-07-10T00:56:27;24.20;46.70
11491;DHT22;5802;52.832;4.758;2022-07-10T00:58:54;24.20;46.70
11491;DHT22;5802;52.832;4.758;2022-07-10T01:01:21;24.20;46.70
11491;DHT22;5802;52.832;4.758;2022-07-10T01:03:50;24.20;46.70
11491;DHT22;5802;52.832;4.758;2022-07-10T01:06:17;24.10;46.70
11491;DHT22;5802;52.832;4.758;2022-07-10T01:08:45;24.10;47.40
11491;DHT22;5802;52.832;4.758;2022-07-10T01:11:13;24.10;46.80
11491;DHT22;5802;52.832;4.758;2022-07-10T01:13:41;24.10;46.70
11491;DHT22;5802;52.832;4.758;2022-07-10T01:16:08;24.10;46.80
11491;DHT22;5802;52.832;4.758;2022-07-10T01:18:34;24.10;46.80
11491;DHT22;5802;52.832;4.758;2022-07-10T01:21:03;24.10;46.90
11491;DHT22;5802;52.832;4.758;2022-07-10T01:23:30;24.10;46.90
11491;DHT22;5802;52.832;4.758;2022-07-10T01:25:56;24.00;46.80
11491;DHT22;5802;52.832;4.758;2022-07-10T01:28:23;24.00;46.90
11491;DHT22;5802;52.832;4.758;2022-07-10T01:30:51;24.00;46.90
11491;DHT22;5802;52.832;4.758;2022-07-10T01:33:21;24.00;46.90
11491;DHT22;5802;52.832;4.758;2022-07-10T01:35:47;24.00;46.90
11491;DHT22;5802;52.832;4.758;2022-07-10T01:38:15;24.00;46.90
11491;DHT22;5802;52.832;4.758;2022-07-10T01:40:42;24.00;46.90
11491;DHT22;5802;52.832;4.758;2022-07-10T01:43:09;24.00;46.90
11491;DHT22;5802;52.832;4.758;2022-07-10T01:45:35;24.00;47.00
11491;DHT22;5802;52.832;4.758;2022-07-10T01:48:02;24.00;47.00
11491;DHT22;5802;52.832;4.758;2022-07-10T01:50:29;24.00;47.00
11491;DHT22;5802;52.832;4.758;2022-07-10T01:52:56;24.00;47.00
11491;DHT22;5802;52.832;4.758;2022-07-10T01:55:24;24.00;47.00
11491;DHT22;5802;52.832;4.758;2022-07-10T01:57:51;24.00;47.00
11491;DHT22;5802;52.832;4.758;2022-07-10T02:00:18;23.90;47.00
11491;DHT22;5802;52.832;4.758;2022-07-10T02:02:44;23.90;47.00
11491;DHT22;5802;52.832;4.758;2022-07-10T02:05:31;24.00;47.10
11491;DHT22;5802;52.832;4.758;2022-07-10T02:07:57;23.90;47.20
11491;DHT22;5802;52.832;4.758;2022-07-10T02:10:26;23.90;47.10
11491;DHT22;5802;52.832;4.758;2022-07-10T02:12:53;23.90;47.10
11491;DHT22;5802;52.832;4.758;2022-07-10T02:15:19;23.90;47.20
11491;DHT22;5802;52.832;4.758;2022-07-10T02:17:46;23.90;47.10
11491;DHT22;5802;52.832;4.758;2022-07-10T02:20:13;23.90;47.10
11491;DHT22;5802;52.832;4.758;2022-07-10T02:22:40;23.90;47.10
11491;DHT22;5802;52.832;4.758;2022-07-10T02:25:07;23.80;47.10
11491;DHT22;5802;52.832;4.758;2022-07-10T02:27:35;23.90;47.20
11491;DHT22;5802;52.832;4.758;2022-07-10T02:30:03;23.90;47.20
11491;DHT22;5802;52.832;4.758;2022-07-10T02:32:29;23.80;47.20
11491;DHT22;5802;52.832;4.758;2022-07-10T02:34:56;23.80;47.20
11491;DHT22;5802;52.832;4.758;2022-07-10T02:37:23;23.80;47.20
11491;DHT22;5802;52.832;4.758;2022-07-10T02:39:50;23.80;47.20
11491;DHT22;5802;52.832;4.758;2022-07-10T02:42:17;23.90;47.20
11491;DHT22;5802;52.832;4.758;2022-07-10T02:44:45;23.90;47.20
11491;DHT22;5802;52.832;4.758;2022-07-10T02:47:12;23.80;47.20
11491;DHT22;5802;52.832;4.758;2022-07-10T02:49:38;23.80;47.20
11491;DHT22;5802;52.832;4.758;2022-07-10T02:52:05;23.80;47.20
11491;DHT22;5802;52.832;4.758;2022-07-10T02:54:32;23.80;47.20
11491;DHT22;5802;52.832;4.758;2022-07-10T02:56:59;23.80;47.30
11491;DHT22;5802;52.832;4.758;2022-07-10T02:59:25;23.80;47.30
11491;DHT22;5802;52.832;4.758;2022-07-10T03:01:53;23.80;47.30
11491;DHT22;5802;52.832;4.758;2022-07-10T03:04:20;23.80;47.30
11491;DHT22;5802;52.832;4.758;2022-07-10T03:06:47;23.80;47.30
11491;DHT22;5802;52.832;4.758;2022-07-10T03:09:13;23.80;47.30
11491;DHT22;5802;52.832;4.758;2022-07-10T03:11:40;23.80;47.30
11491;DHT22;5802;52.832;4.758;2022-07-10T03:14:07;23.80;47.30
11491;DHT22;5802;52.832;4.758;2022-07-10T03:16:34;23.80;47.30
11491;DHT22;5802;52.832;4.758;2022-07-10T03:19:02;23.80;47.40
11491;DHT22;5802;52.832;4.758;2022-07-10T03:21:29;23.70;47.30
11491;DHT22;5802;52.832;4.758;2022-07-10T03:23:56;23.80;47.40
11491;DHT22;5802;52.832;4.758;2022-07-10T03:26:23;23.70;47.40
11491;DHT22;5802;52.832;4.758;2022-07-10T03:28:50;23.70;47.40
11491;DHT22;5802;52.832;4.758;2022-07-10T03:31:16;23.70;47.40
11491;DHT22;5802;52.832;4.758;2022-07-10T03:33:44;23.70;47.40
11491;DHT22;5802;52.832;4.758;2022-07-10T03:36:12;23.70;47.40
11491;DHT22;5802;52.832;4.758;2022-07-10T03:38:39;23.70;47.40
11491;DHT22;5802;52.832;4.758;2022-07-10T03:41:06;23.70;47.40
11491;DHT22;5802;52.832;4.758;2022-07-10T03:43:32;23.70;47.40
11491;DHT22;5802;52.832;4.758;2022-07-10T03:45:59;23.70;48.10
11491;DHT22;5802;52.832;4.758;2022-07-10T03:48:26;23.70;47.50
11491;DHT22;5802;52.832;4.758;2022-07-10T03:50:53;23.70;47.40
11491;DHT22;5802;52.832;4.758;2022-07-10T03:53:21;23.70;47.50
11491;DHT22;5802;52.832;4.758;2022-07-10T03:55:48;23.70;47.50
11491;DHT22;5802;52.832;4.758;2022-07-10T03:58:14;23.70;47.50
11491;DHT22;5802;52.832;4.758;2022-07-10T04:00:40;23.70;47.50
11491;DHT22;5802;52.832;4.758;2022-07-10T04:03:08;23.70;47.50
11491;DHT22;5802;52.832;4.758;2022-07-10T04:05:35;23.70;47.60
11491;DHT22;5802;52.832;4.758;2022-07-10T04:08:03;23.70;47.50
11491;DHT22;5802;52.832;4.758;2022-07-10T04:10:31;23.70;47.60
11491;DHT22;5802;52.832;4.758;2022-07-10T04:12:58;23.70;47.70
11491;DHT22;5802;52.832;4.758;2022-07-10T04:15:25;23.70;47.60
11491;DHT22;5802;52.832;4.758;2022-07-10T04:17:52;23.70;47.70
11491;DHT22;5802;52.832;4.758;2022-07-10T04:20:19;23.60;47.60
11491;DHT22;5802;52.832;4.758;2022-07-10T04:22:46;23.60;47.70
11491;DHT22;5802;52.832;4.758;2022-07-10T04:25:13;23.70;47.70
11491;DHT22;5802;52.832;4.758;2022-07-10T04:27:41;23.60;47.70
11491;DHT22;5802;52.832;4.758;2022-07-10T04:30:09;23.60;47.70
11491;DHT22;5802;52.832;4.758;2022-07-10T04:32:35;23.60;47.70
11491;DHT22;5802;52.832;4.758;2022-07-10T04:35:03;23.60;47.70
11491;DHT22;5802;52.832;4.758;2022-07-10T04:37:29;23.60;47.70
11491;DHT22;5802;52.832;4.758;2022-07-10T04:39:56;23.60;47.70
11491;DHT22;5802;52.832;4.758;2022-07-10T04:42:23;23.60;47.70
11491;DHT22;5802;52.832;4.758;2022-07-10T04:44:51;23.60;47.70
11491;DHT22;5802;52.832;4.758;2022-07-10T04:47:18;23.60;47.70
11491;DHT22;5802;52.832;4.758;2022-07-10T04:49:45;23.60;47.70
11491;DHT22;5802;52.832;4.758;2022-07-10T04:52:11;23.60;47.70
11491;DHT22;5802;52.832;4.758;2022-07-10T04:54:38;23.60;47.70
11491;DHT22;5802;52.832;4.758;2022-07-10T04:57:05;23.60;47.80
11491;DHT22;5802;52.832;4.758;2022-07-10T04:59:32;23.60;47.80
11491;DHT22;5802;52.832;4.758;2022-07-10T05:02:00;23.60;47.70
11491;DHT22;5802;52.832;4.758;2022-07-10T05:04:26;23.60;47.70
11491;DHT22;5802;52.832;4.758;2022-07-10T05:06:53;23.60;47.70
11491;DHT22;5802;52.832;4.758;2022-07-10T05:09:20;23.60;47.70
11491;DHT22;5802;52.832;4.758;2022-07-10T05:11:47;23.60;47.70
11491;DHT22;5802;52.832;4.758;2022-07-10T05:14:13;23.60;47.70
11491;DHT22;5802;52.832;4.758;2022-07-10T05:16:41;23.60;47.70
11491;DHT22;5802;52.832;4.758;2022-07-10T05:19:09;23.60;47.70
11491;DHT22;5802;52.832;4.758;2022-07-10T05:21:36;23.60;47.70
11491;DHT22;5802;52.832;4.758;2022-07-10T05:24:03;23.60;47.70
11491;DHT22;5802;52.832;4.758;2022-07-10T05:26:30;23.60;47.70
11491;DHT22;5802;52.832;4.758;2022-07-10T05:28:56;23.60;47.70
11491;DHT22;5802;52.832;4.758;2022-07-10T05:31:23;23.60;47.70
11491;DHT22;5802;52.832;4.758;2022-07-10T05:33:50;23.60;47.70
11491;DHT22;5802;52.832;4.758;2022-07-10T05:36:18;23.60;47.70
11491;DHT22;5802;52.832;4.758;2022-07-10T05:38:45;23.60;47.70
11491;DHT22;5802;52.832;4.758;2022-07-10T05:41:11;23.60;47.70
11491;DHT22;5802;52.832;4.758;2022-07-10T05:43:38;23.60;47.70
11491;DHT22;5802;52.832;4.758;2022-07-10T05:46:05;23.60;47.70
11491;DHT22;5802;52.832;4.758;2022-07-10T05:48:32;23.60;47.70
11491;DHT22;5802;52.832;4.758;2022-07-10T05:50:58;23.70;47.70
11491;DHT22;5802;52.832;4.758;2022-07-10T05:53:27;23.60;47.70
11491;DHT22;5802;52.832;4.758;2022-07-10T05:55:53;23.70;47.70
11491;DHT22;5802;52.832;4.758;2022-07-10T05:58:20;23.60;47.80
11491;DHT22;5802;52.832;4.758;2022-07-10T06:00:47;23.70;47.80
11491;DHT22;5802;52.832;4.758;2022-07-10T06:03:17;23.60;47.70
11491;DHT22;5802;52.832;4.758;2022-07-10T06:05:44;23.70;47.70
11491;DHT22;5802;52.832;4.758;2022-07-10T06:08:11;23.60;47.70
11491;DHT22;5802;52.832;4.758;2022-07-10T06:10:45;23.70;47.80
11491;DHT22;5802;52.832;4.758;2022-07-10T06:13:12;23.70;47.80
11491;DHT22;5802;52.832;4.758;2022-07-10T06:15:39;23.70;47.70
11491;DHT22;5802;52.832;4.758;2022-07-10T06:18:06;23.70;47.80
11491;DHT22;5802;52.832;4.758;2022-07-10T06:20:32;23.70;47.80
11491;DHT22;5802;52.832;4.758;2022-07-10T06:22:59;23.70;47.80
11491;DHT22;5802;52.832;4.758;2022-07-10T06:25:26;23.70;47.70
11491;DHT22;5802;52.832;4.758;2022-07-10T06:27:54;23.70;47.70
11491;DHT22;5802;52.832;4.758;2022-07-10T06:30:21;23.70;47.70
11491;DHT22;5802;52.832;4.758;2022-07-10T06:32:48;23.70;47.70
11491;DHT22;5802;52.832;4.758;2022-07-10T06:35:15;23.70;47.70
11491;DHT22;5802;52.832;4.758;2022-07-10T06:37:42;23.80;47.70
11491;DHT22;5802;52.832;4.758;2022-07-10T06:40:11;23.70;47.60
11491;DHT22;5802;52.832;4.758;2022-07-10T06:42:39;23.80;47.60
11491;DHT22;5802;52.832;4.758;2022-07-10T06:45:08;23.80;47.60
11491;DHT22;5802;52.832;4.758;2022-07-10T06:47:35;23.80;47.60
11491;DHT22;5802;52.832;4.758;2022-07-10T06:50:19;23.80;47.60
11491;DHT22;5802;52.832;4.758;2022-07-10T06:52:47;23.80;47.60
11491;DHT22;5802;52.832;4.758;2022-07-10T06:55:14;23.80;47.60
11491;DHT22;5802;52.832;4.758;2022-07-10T06:57:41;23.80;47.60
11491;DHT22;5802;52.832;4.758;2022-07-10T07:00:10;23.80;47.60
11491;DHT22;5802;52.832;4.758;2022-07-10T07:02:37;23.80;47.60
11491;DHT22;5802;52.832;4.758;2022-07-10T07:05:05;23.90;47.60
11491;DHT22;5802;52.832;4.758;2022-07-10T07:07:32;23.90;47.60
11491;DHT22;5802;52.832;4.758;2022-07-10T07:09:58;23.90;47.60
11491;DHT22;5802;52.832;4.758;2022-07-10T07:12:25;24.00;47.60
11491;DHT22;5802;52.832;4.758;2022-07-10T07:14:52;24.00;47.60
11491;DHT22;5802;52.832;4.758;2022-07-10T07:17:20;24.00;47.60
11491;DHT22;5802;52.832;4.758;2022-07-10T07:19:49;24.00;47.50
11491;DHT22;5802;52.832;4.758;2022-07-10T07:22:34;24.00;47.50
11491;DHT22;5802;52.832;4.758;2022-07-10T07:25:19;24.00;47.50
11491;DHT22;5802;52.832;4.758;2022-07-10T07:27:45;24.00;47.50
11491;DHT22;5802;52.832;4.758;2022-07-10T07:30:14;24.00;47.50
11491;DHT22;5802;52.832;4.758;2022-07-10T07:32:43;24.10;47.60
11491;DHT22;5802;52.832;4.758;2022-07-10T07:35:12;24.10;47.60
11491;DHT22;5802;52.832;4.758;2022-07-10T07:37:39;24.10;47.50
11491;DHT22;5802;52.832;4.758;2022-07-10T07:40:08;24.10;47.50
11491;DHT22;5802;52.832;4.758;2022-07-10T07:42:35;24.10;47.50
11491;DHT22;5802;52.832;4.758;2022-07-10T07:45:03;24.20;47.70
11491;DHT22;5802;52.832;4.758;2022-07-10T07:47:31;24.20;47.50
11491;DHT22;5802;52.832;4.758;2022-07-10T07:50:01;24.20;47.40
11491;DHT22;5802;52.832;4.758;2022-07-10T07:52:29;24.20;47.40
11491;DHT22;5802;52.832;4.758;2022-07-10T07:54:56;24.30;47.40
11491;DHT22;5802;52.832;4.758;2022-07-10T07:57:23;24.30;47.40
11491;DHT22;5802;52.832;4.758;2022-07-10T07:59:50;24.30;47.30
11491;DHT22;5802;52.832;4.758;2022-07-10T08:02:16;24.30;47.40
11491;DHT22;5802;52.832;4.758;2022-07-10T08:04:43;24.30;47.40
11491;DHT22;5802;52.832;4.758;2022-07-10T08:07:11;24.40;47.30
11491;DHT22;5802;52.832;4.758;2022-07-10T08:09:38;24.40;47.30
11491;DHT22;5802;52.832;4.758;2022-07-10T08:12:05;24.40;47.30
11491;DHT22;5802;52.832;4.758;2022-07-10T08:14:32;24.40;47.30
11491;DHT22;5802;52.832;4.758;2022-07-10T08:16:58;24.40;47.30
11491;DHT22;5802;52.832;4.758;2022-07-10T08:19:25;24.40;47.30
11491;DHT22;5802;52.832;4.758;2022-07-10T08:21:52;24.40;47.30
11491;DHT22;5802;52.832;4.758;2022-07-10T08:24:20;24.40;47.30
11491;DHT22;5802;52.832;4.758;2022-07-10T08:26:47;24.50;47.40
11491;DHT22;5802;52.832;4.758;2022-07-10T08:29:13;24.50;47.50
11491;DHT22;5802;52.832;4.758;2022-07-10T08:31:40;24.50;47.50
11491;DHT22;5802;52.832;4.758;2022-07-10T08:34:07;24.50;47.60
11491;DHT22;5802;52.832;4.758;2022-07-10T08:36:34;24.50;47.60
11491;DHT22;5802;52.832;4.758;2022-07-10T08:39:00;24.50;47.70
11491;DHT22;5802;52.832;4.758;2022-07-10T08:41:31;24.50;47.70
11491;DHT22;5802;52.832;4.758;2022-07-10T08:43:59;24.50;47.80
11491;DHT22;5802;52.832;4.758;2022-07-10T08:46:27;24.50;47.80
11491;DHT22;5802;52.832;4.758;2022-07-10T08:48:56;24.50;47.80
11491;DHT22;5802;52.832;4.758;2022-07-10T08:51:35;24.50;47.90
11491;DHT22;5802;52.832;4.758;2022-07-10T08:54:04;24.50;47.80
11491;DHT22;5802;52.832;4.758;2022-07-10T08:56:33;24.50;47.80
11491;DHT22;5802;52.832;4.758;2022-07-10T08:59:01;24.60;47.90
11491;DHT22;5802;52.832;4.758;2022-07-10T09:01:28;24.60;47.90
11491;DHT22;5802;52.832;4.758;2022-07-10T09:03:55;24.60;47.80
11491;DHT22;5802;52.832;4.758;2022-07-10T09:06:22;24.60;47.90
11491;DHT22;5802;52.832;4.758;2022-07-10T09:08:59;24.70;47.90
11491;DHT22;5802;52.832;4.758;2022-07-10T09:11:26;24.70;47.90
11491;DHT22;5802;52.832;4.758;2022-07-10T09:13:57;24.70;47.90
11491;DHT22;5802;52.832;4.758;2022-07-10T09:16:25;24.70;48.00
11491;DHT22;5802;52.832;4.758;2022-07-10T09:18:54;24.70;48.10
11491;DHT22;5802;52.832;4.758;2022-07-10T09:21:21;24.70;47.90
11491;DHT22;5802;52.832;4.758;2022-07-10T09:23:47;24.80;47.80
11491;DHT22;5802;52.832;4.758;2022-07-10T09:26:15;24.80;47.70
11491;DHT22;5802;52.832;4.758;2022-07-10T09:28:43;24.90;47.70
11491;DHT22;5802;52.832;4.758;2022-07-10T09:31:11;24.90;47.60
11491;DHT22;5802;52.832;4.758;2022-07-10T09:33:40;25.00;47.50
11491;DHT22;5802;52.832;4.758;2022-07-10T09:36:07;25.00;47.40
11491;DHT22;5802;52.832;4.758;2022-07-10T09:38:56;25.00;47.30
11491;DHT22;5802;52.832;4.758;2022-07-10T09:41:27;25.00;47.20
11491;DHT22;5802;52.832;4.758;2022-07-10T09:43:56;25.00;47.20
11491;DHT22;5802;52.832;4.758;2022-07-10T09:46:25;25.10;47.20
11491;DHT22;5802;52.832;4.758;2022-07-10T09:49:06;25.10;47.10
11491;DHT22;5802;52.832;4.758;2022-07-10T09:51:36;25.10;47.00
11491;DHT22;5802;52.832;4.758;2022-07-10T09:54:04;25.10;46.90
11491;DHT22;5802;52.832;4.758;2022-07-10T09:56:38;25.10;46.80
11491;DHT22;5802;52.832;4.758;2022-07-10T09:59:09;25.10;46.90
11491;DHT22;5802;52.832;4.758;2022-07-10T10:01:44;25.10;47.10
11491;DHT22;5802;52.832;4.758;2022-07-10T10:04:12;25.20;47.20
11491;DHT22;5802;52.832;4.758;2022-07-10T10:06:40;25.20;47.10
11491;DHT22;5802;52.832;4.758;2022-07-10T10:09:11;25.30;46.90
11491;DHT22;5802;52.832;4.758;2022-07-10T10:11:41;25.30;46.90
11491;DHT22;5802;52.832;4.758;2022-07-10T10:14:11;25.30;46.80
11491;DHT22;5802;52.832;4.758;2022-07-10T10:16:39;25.30;46.80
11491;DHT22;5802;52.832;4.758;2022-07-10T10:19:10;25.40;46.70
11491;DHT22;5802;52.832;4.758;2022-07-10T10:21:56;25.40;46.70
11491;DHT22;5802;52.832;4.758;2022-07-10T10:24:25;25.40;46.70
11491;DHT22;5802;52.832;4.758;2022-07-10T10:26:52;25.40;46.60
11491;DHT22;5802;52.832;4.758;2022-07-10T10:29:19;25.40;46.60
11491;DHT22;5802;52.832;4.758;2022-07-10T10:31:49;25.50;46.70
11491;DHT22;5802;52.832;4.758;2022-07-10T10:34:37;25.50;46.70
11491;DHT22;5802;52.832;4.758;2022-07-10T10:37:04;25.50;46.80
11491;DHT22;5802;52.832;4.758;2022-07-10T10:39:51;25.50;46.90
11491;DHT22;5802;52.832;4.758;2022-07-10T10:42:32;25.50;46.80
11491;DHT22;5802;52.832;4.758;2022-07-10T10:45:23;25.60;46.90
11491;DHT22;5802;52.832;4.758;2022-07-10T10:48:01;25.50;46.90
11491;DHT22;5802;52.832;4.758;2022-07-10T10:50:38;25.60;47.00
11491;DHT22;5802;52.832;4.758;2022-07-10T10:53:12;25.60;47.00
11491;DHT22;5802;52.832;4.758;2022-07-10T10:55:40;25.60;47.00
11491;DHT22;5802;52.832;4.758;2022-07-10T10:58:15;25.60;47.10
11491;DHT22;5802;52.832;4.758;2022-07-10T11:00:43;25.60;47.20
11491;DHT22;5802;52.832;4.758;2022-07-10T11:03:29;25.60;47.20
11491;DHT22;5802;52.832;4.758;2022-07-10T11:05:55;25.60;47.10
11491;DHT22;5802;52.832;4.758;2022-07-10T11:08:39;25.70;47.10
11491;DHT22;5802;52.832;4.758;2022-07-10T11:14:14;25.70;47.10
11491;DHT22;5802;52.832;4.758;2022-07-10T11:16:47;25.70;47.30
11491;DHT22;5802;52.832;4.758;2022-07-10T11:19:21;25.70;47.20
11491;DHT22;5802;52.832;4.758;2022-07-10T11:21:56;25.70;47.20
11491;DHT22;5802;52.832;4.758;2022-07-10T11:24:38;25.70;47.20
11491;DHT22;5802;52.832;4.758;2022-07-10T11:30:02;25.80;47.30
11491;DHT22;5802;52.832;4.758;2022-07-10T11:32:29;25.80;47.30
11491;DHT22;5802;52.832;4.758;2022-07-10T11:34:58;25.80;47.40
11491;DHT22;5802;52.832;4.758;2022-07-10T11:37:25;25.80;47.40
11491;DHT22;5802;52.832;4.758;2022-07-10T11:40:08;25.80;47.40
11491;DHT22;5802;52.832;4.758;2022-07-10T11:42:48;25.80;47.50
11491;DHT22;5802;52.832;4.758;2022-07-10T11:45:29;25.80;47.60
11491;DHT22;5802;52.832;4.758;2022-07-10T11:47:57;25.80;47.60
11491;DHT22;5802;52.832;4.758;2022-07-10T11:50:26;25.90;47.70
11491;DHT22;5802;52.832;4.758;2022-07-10T11:52:54;25.90;47.80
11491;DHT22;5802;52.832;4.758;2022-07-10T11:55:22;25.90;47.80
11491;DHT22;5802;52.832;4.758;2022-07-10T11:57:49;25.90;47.90
11491;DHT22;5802;52.832;4.758;2022-07-10T12:00:24;25.90;47.80
11491;DHT22;5802;52.832;4.758;2022-07-10T12:02:51;25.90;47.70
11491;DHT22;5802;52.832;4.758;2022-07-10T12:05:36;25.90;47.80
11491;DHT22;5802;52.832;4.758;2022-07-10T12:08:03;25.90;47.90
11491;DHT22;5802;52.832;4.758;2022-07-10T12:10:32;25.90;48.00
11491;DHT22;5802;52.832;4.758;2022-07-10T12:13:04;25.90;48.10
11491;DHT22;5802;52.832;4.758;2022-07-10T12:15:32;26.00;48.20
11491;DHT22;5802;52.832;4.758;2022-07-10T12:17:59;26.00;48.40
11491;DHT22;5802;52.832;4.758;2022-07-10T12:20:26;26.00;48.50
11491;DHT22;5802;52.832;4.758;2022-07-10T12:22:55;26.00;48.60
11491;DHT22;5802;52.832;4.758;2022-07-10T12:25:22;26.00;48.70
11491;DHT22;5802;52.832;4.758;2022-07-10T12:27:49;26.10;48.80
11491;DHT22;5802;52.832;4.758;2022-07-10T12:30:16;26.10;48.80
11491;DHT22;5802;52.832;4.758;2022-07-10T12:32:42;26.10;48.90
11491;DHT22;5802;52.832;4.758;2022-07-10T12:35:09;26.10;49.00
11491;DHT22;5802;52.832;4.758;2022-07-10T12:37:47;26.10;49.10
11491;DHT22;5802;52.832;4.758;2022-07-10T12:43:35;26.10;49.00
11491;DHT22;5802;52.832;4.758;2022-07-10T12:46:10;26.10;48.90
11491;DHT22;5802;52.832;4.758;2022-07-10T12:48:37;26.10;49.00
11491;DHT22;5802;52.832;4.758;2022-07-10T12:51:42;26.10;48.90
11491;DHT22;5802;52.832;4.758;2022-07-10T12:54:29;26.10;49.00
11491;DHT22;5802;52.832;4.758;2022-07-10T12:56:59;26.10;49.00
11491;DHT22;5802;52.832;4.758;2022-07-10T12:59:27;26.10;49.00
11491;DHT22;5802;52.832;4.758;2022-07-10T13:05:28;26.10;49.00
11491;DHT22;5802;52.832;4.758;2022-07-10T13:11:17;26.10;49.10
11491;DHT22;5802;52.832;4.758;2022-07-10T13:13:43;26.10;49.30
11491;DHT22;5802;52.832;4.758;2022-07-10T13:16:12;26.10;49.30
11491;DHT22;5802;52.832;4.758;2022-07-10T13:18:42;26.10;49.30
11491;DHT22;5802;52.832;4.758;2022-07-10T13:21:09;26.10;50.00
11491;DHT22;5802;52.832;4.758;2022-07-10T13:23:55;26.10;49.40
11491;DHT22;5802;52.832;4.758;2022-07-10T13:26:49;26.10;49.60
11491;DHT22;5802;52.832;4.758;2022-07-10T13:29:17;26.10;49.50
11491;DHT22;5802;52.832;4.758;2022-07-10T13:31:46;26.10;49.60
11491;DHT22;5802;52.832;4.758;2022-07-10T13:34:14;26.10;49.50
11491;DHT22;5802;52.832;4.758;2022-07-10T13:36:41;26.10;49.50
11491;DHT22;5802;52.832;4.758;2022-07-10T13:39:10;26.10;49.60
11491;DHT22;5802;52.832;4.758;2022-07-10T13:41:37;26.20;49.60
11491;DHT22;5802;52.832;4.758;2022-07-10T13:44:07;26.20;49.60
11491;DHT22;5802;52.832;4.758;2022-07-10T13:46:38;26.20;49.60
11491;DHT22;5802;52.832;4.758;2022-07-10T13:49:07;26.20;49.60
11491;DHT22;5802;52.832;4.758;2022-07-10T13:51:35;26.20;49.60
11491;DHT22;5802;52.832;4.758;2022-07-10T13:54:05;26.20;49.70
11491;DHT22;5802;52.832;4.758;2022-07-10T13:56:32;26.10;49.60
11491;DHT22;5802;52.832;4.758;2022-07-10T13:58:59;26.10;49.60
11491;DHT22;5802;52.832;4.758;2022-07-10T14:01:26;26.10;49.70
11491;DHT22;5802;52.832;4.758;2022-07-10T14:03:53;26.10;50.40
11491;DHT22;5802;52.832;4.758;2022-07-10T14:06:22;26.10;49.90
11491;DHT22;5802;52.832;4.758;2022-07-10T14:09:07;26.10;50.00
11491;DHT22;5802;52.832;4.758;2022-07-10T14:11:34;26.10;50.00
11491;DHT22;5802;52.832;4.758;2022-07-10T14:14:02;26.00;50.10
11491;DHT22;5802;52.832;4.758;2022-07-10T14:16:41;26.00;50.10
11491;DHT22;5802;52.832;4.758;2022-07-10T14:19:09;26.00;50.10
11491;DHT22;5802;52.832;4.758;2022-07-10T14:21:51;26.00;50.10
11491;DHT22;5802;52.832;4.758;2022-07-10T14:24:18;26.00;50.20
11491;DHT22;5802;52.832;4.758;2022-07-10T14:26:45;26.00;50.20
11491;DHT22;5802;52.832;4.758;2022-07-10T14:29:32;26.00;50.30
11491;DHT22;5802;52.832;4.758;2022-07-10T14:31:59;26.00;50.40
11491;DHT22;5802;52.832;4.758;2022-07-10T14:34:26;26.00;50.50
11491;DHT22;5802;52.832;4.758;2022-07-10T14:36:56;25.90;50.50
11491;DHT22;5802;52.832;4.758;2022-07-10T14:39:23;25.90;50.60
11491;DHT22;5802;52.832;4.758;2022-07-10T14:41:50;25.90;50.70
11491;DHT22;5802;52.832;4.758;2022-07-10T14:44:17;25.90;50.80
11491;DHT22;5802;52.832;4.758;2022-07-10T14:46:44;25.90;50.90
11491;DHT22;5802;52.832;4.758;2022-07-10T14:49:11;25.90;51.00
11491;DHT22;5802;52.832;4.758;2022-07-10T14:51:40;25.90;51.10
11491;DHT22;5802;52.832;4.758;2022-07-10T14:54:08;25.90;51.10
11491;DHT22;5802;52.832;4.758;2022-07-10T14:56:36;25.90;51.20
11491;DHT22;5802;52.832;4.758;2022-07-10T14:59:03;25.90;51.30
11491;DHT22;5802;52.832;4.758;2022-07-10T15:01:54;25.90;51.30
11491;DHT22;5802;52.832;4.758;2022-07-10T15:04:21;25.80;51.30
11491;DHT22;5802;52.832;4.758;2022-07-10T15:07:01;25.80;51.30
11491;DHT22;5802;52.832;4.758;2022-07-10T15:09:30;25.90;51.30
11491;DHT22;5802;52.832;4.758;2022-07-10T15:11:56;25.80;51.10
11491;DHT22;5802;52.832;4.758;2022-07-10T15:14:23;25.90;51.20
11491;DHT22;5802;52.832;4.758;2022-07-10T15:16:54;25.80;51.70
11491;DHT22;5802;52.832;4.758;2022-07-10T15:19:21;25.90;51.20
11491;DHT22;5802;52.832;4.758;2022-07-10T15:21:50;25.90;51.20
11491;DHT22;5802;52.832;4.758;2022-07-10T15:24:17;25.80;51.10
11491;DHT22;5802;52.832;4.758;2022-07-10T15:26:46;25.90;51.00
11491;DHT22;5802;52.832;4.758;2022-07-10T15:29:16;25.80;50.80
11491;DHT22;5802;52.832;4.758;2022-07-10T15:31:43;25.80;50.70
11491;DHT22;5802;52.832;4.758;2022-07-10T15:34:10;25.80;50.70
11491;DHT22;5802;52.832;4.758;2022-07-10T15:36:40;25.80;50.80
11491;DHT22;5802;52.832;4.758;2022-07-10T15:39:09;25.80;50.70
11491;DHT22;5802;52.832;4.758;2022-07-10T15:41:36;25.80;50.60
11491;DHT22;5802;52.832;4.758;2022-07-10T15:44:04;25.80;50.60
11491;DHT22;5802;52.832;4.758;2022-07-10T15:46:31;25.80;50.70
11491;DHT22;5802;52.832;4.758;2022-07-10T15:48:58;25.80;50.80
11491;DHT22;5802;52.832;4.758;2022-07-10T15:51:25;25.80;50.80
11491;DHT22;5802;52.832;4.758;2022-07-10T15:53:55;25.80;50.90
11491;DHT22;5802;52.832;4.758;2022-07-10T15:56:31;25.90;51.00
11491;DHT22;5802;52.832;4.758;2022-07-10T15:58:58;25.90;51.50
11491;DHT22;5802;52.832;4.758;2022-07-10T16:01:26;25.80;50.90
11491;DHT22;5802;52.832;4.758;2022-07-10T16:03:53;25.80;50.90
11491;DHT22;5802;52.832;4.758;2022-07-10T16:06:20;25.80;51.00
11491;DHT22;5802;52.832;4.758;2022-07-10T16:08:47;25.80;51.00
11491;DHT22;5802;52.832;4.758;2022-07-10T16:11:14;25.80;51.00